Time;durP1;ratioP1;P1;durP2;ratioP2;P2;SDS_P1;SDS_P2;PMS_P1;PMS_P2;Temp;Humidity;BMP_temperature;BMP_pressure;BME280_temperature;BME280_humidity;BME280_pressure;Samples;Min_cycle;Max_cycle;Signal;HPM_P1;HPM_P2
2022/10/27 00:01:40;;;;;;;1.70;1.10;;;;;;;;;;4932696;29;20231;-70
2022/10/27 00:04:08;;;;;;;1.80;1.20;;;;;;;;;;4932261;29;20212;-70
2022/10/27 00:06:36;;;;;;;4.30;1.40;;;;;;;;;;4932631;29;20208;-70
2022/10/27 00:09:04;;;;;;;2.90;1.73;;;;;;;;;;4926286;29;20591;-70
2022/10/27 00:11:31;;;;;;;4.27;1.33;;;;;;;;;;4929609;29;20207;-70
2022/10/27 00:13:58;;;;;;;4.80;1.47;;;;;;;;;;4932283;29;20211;-70
2022/10/27 00:16:25;;;;;;;2.87;1.77;;;;;;;;;;4932682;29;20300;-70
2022/10/27 00:18:52;;;;;;;3.33;1.47;;;;;;;;;;4932394;29;20207;-70
2022/10/27 00:21:21;;;;;;;1.80;1.70;;;;;;;;;;4931885;29;20220;-70
2022/10/27 00:23:49;;;;;;;2.00;1.90;;;;;;;;;;4932491;29;20214;-70
2022/10/27 00:26:17;;;;;;;1.70;1.60;;;;;;;;;;4932231;29;20303;-70
2022/10/27 00:28:44;;;;;;;1.57;1.43;;;;;;;;;;4931819;29;20207;-70
2022/10/27 00:31:13;;;;;;;2.23;2.03;;;;;;;;;;4932217;29;20227;-70
2022/10/27 00:33:40;;;;;;;3.60;1.73;;;;;;;;;;4931896;29;20224;-69
2022/10/27 00:36:09;;;;;;;4.67;1.67;;;;;;;;;;4931608;29;20207;-68
2022/10/27 00:38:37;;;;;;;1.93;1.83;;;;;;;;;;4931790;29;20314;-69
2022/10/27 00:41:05;;;;;;;1.70;1.60;;;;;;;;;;4931634;29;20239;-71
2022/10/27 00:43:33;;;;;;;3.13;1.60;;;;;;;;;;4931232;29;20246;-68
2022/10/27 00:46:02;;;;;;;1.67;1.57;;;;;;;;;;4931630;29;20588;-68
2022/10/27 00:48:30;;;;;;;1.90;1.20;;;;;;;;;;4931553;29;20269;-69
2022/10/27 00:50:59;;;;;;;2.20;1.23;;;;;;;;;;4931384;29;20204;-68
2022/10/27 00:53:26;;;;;;;1.30;1.23;;;;;;;;;;4931298;29;20212;-69
2022/10/27 00:55:55;;;;;;;1.20;1.20;;;;;;;;;;4931818;29;20215;-69
2022/10/27 00:58:22;;;;;;;1.50;1.30;;;;;;;;;;4931486;29;20229;-69
2022/10/27 01:00:49;;;;;;;0.97;0.93;;;;;;;;;;4928030;29;20200;-68
2022/10/27 01:03:19;;;;;;;1.60;1.50;;;;;;;;;;4931332;29;20247;-69
2022/10/27 01:05:46;;;;;;;3.90;1.83;;;;;;;;;;4931652;29;20204;-69
2022/10/27 01:08:13;;;;;;;1.27;1.20;;;;;;;;;;4931538;29;20288;-69
2022/10/27 01:10:40;;;;;;;1.63;0.83;;;;;;;;;;4931477;29;20239;-68
2022/10/27 01:13:09;;;;;;;1.77;1.67;;;;;;;;;;4931641;29;20593;-69
2022/10/27 01:15:38;;;;;;;2.13;1.40;;;;;;;;;;4931614;29;20214;-69
2022/10/27 01:18:09;;;;;;;2.97;1.17;;;;;;;;;;4931423;29;20212;-69
2022/10/27 01:20:51;;;;;;;3.17;1.80;;;;;;;;;;4930943;29;20216;-69
2022/10/27 01:23:25;;;;;;;4.00;1.70;;;;;;;;;;4921981;29;20239;-69
2022/10/27 01:26:05;;;;;;;1.73;1.67;;;;;;;;;;4930744;29;20445;-69
2022/10/27 01:28:53;;;;;;;1.23;1.20;;;;;;;;;;4931218;29;20693;-69
2022/10/27 01:31:23;;;;;;;5.73;1.70;;;;;;;;;;4906847;29;20212;-69
2022/10/27 01:33:52;;;;;;;1.30;1.30;;;;;;;;;;4931137;29;20204;-69
2022/10/27 01:36:23;;;;;;;2.17;1.83;;;;;;;;;;4930893;29;20212;-69
2022/10/27 01:38:54;;;;;;;1.90;1.73;;;;;;;;;;4930953;29;20233;-69
2022/10/27 01:41:23;;;;;;;3.57;1.57;;;;;;;;;;4930498;29;20238;-69
2022/10/27 01:43:52;;;;;;;1.47;1.47;;;;;;;;;;4930894;29;20211;-69
2022/10/27 01:46:19;;;;;;;1.87;1.77;;;;;;;;;;4930922;29;20203;-69
2022/10/27 01:48:48;;;;;;;2.30;2.20;;;;;;;;;;4930581;29;20208;-69
2022/10/27 01:51:15;;;;;;;2.93;1.47;;;;;;;;;;4931141;29;20231;-69
2022/10/27 01:53:45;;;;;;;2.37;2.10;;;;;;;;;;4929960;29;20236;-69
2022/10/27 01:56:21;;;;;;;5.10;1.97;;;;;;;;;;4930321;29;20235;-67
2022/10/27 01:58:58;;;;;;;2.67;2.20;;;;;;;;;;4919584;29;20218;-67
2022/10/27 02:01:36;;;;;;;2.73;2.57;;;;;;;;;;4930267;29;20243;-68
2022/10/27 02:04:09;;;;;;;1.97;1.83;;;;;;;;;;4930578;29;20212;-67
2022/10/27 02:06:40;;;;;;;3.90;3.10;;;;;;;;;;4923160;29;20291;-68
2022/10/27 02:09:11;;;;;;;3.83;3.43;;;;;;;;;;4931008;29;20223;-68
2022/10/27 02:11:40;;;;;;;3.80;3.10;;;;;;;;;;4930576;29;20211;-68
2022/10/27 02:14:07;;;;;;;3.03;2.57;;;;;;;;;;4930031;29;20203;-67
2022/10/27 02:16:39;;;;;;;7.87;3.73;;;;;;;;;;4930882;29;20206;-68
2022/10/27 02:19:09;;;;;;;6.93;3.37;;;;;;;;;;4930608;29;20581;-68
2022/10/27 02:21:38;;;;;;;5.03;2.80;;;;;;;;;;4930486;29;20212;-67
2022/10/27 02:24:06;;;;;;;2.70;2.50;;;;;;;;;;4930120;29;20215;-68
2022/10/27 02:26:36;;;;;;;5.90;2.67;;;;;;;;;;4930577;29;20238;-68
2022/10/27 02:29:05;;;;;;;5.47;3.07;;;;;;;;;;4930844;29;20214;-68
2022/10/27 02:31:34;;;;;;;3.50;3.20;;;;;;;;;;4930633;29;20234;-67
2022/10/27 02:34:01;;;;;;;11.03;4.67;;;;;;;;;;4930568;29;20219;-68
2022/10/27 02:36:30;;;;;;;27.40;7.23;;;;;;;;;;4930253;29;20211;-67
2022/10/27 02:38:57;;;;;;;19.93;5.63;;;;;;;;;;4930690;29;20203;-67
2022/10/27 02:41:24;;;;;;;20.70;6.27;;;;;;;;;;4930411;29;20212;-67
2022/10/27 02:43:51;;;;;;;15.13;5.93;;;;;;;;;;4930387;29;20334;-67
2022/10/27 02:46:18;;;;;;;19.07;5.63;;;;;;;;;;4930193;29;20212;-68
2022/10/27 02:48:45;;;;;;;15.67;5.47;;;;;;;;;;4929878;29;20212;-68
2022/10/27 02:51:12;;;;;;;21.70;6.77;;;;;;;;;;4930387;29;20224;-68
2022/10/27 02:53:41;;;;;;;17.83;6.17;;;;;;;;;;4932016;29;20231;-68
2022/10/27 02:56:08;;;;;;;17.67;6.03;;;;;;;;;;4933216;29;20242;-67
2022/10/27 02:58:35;;;;;;;14.97;4.97;;;;;;;;;;4933014;29;20246;-68
2022/10/27 03:01:02;;;;;;;23.67;6.37;;;;;;;;;;4933018;29;20230;-68
2022/10/27 03:03:29;;;;;;;14.27;4.77;;;;;;;;;;4933159;29;20711;-68
2022/10/27 03:05:56;;;;;;;8.10;3.83;;;;;;;;;;4932125;29;20997;-68
2022/10/27 03:08:24;;;;;;;11.63;4.00;;;;;;;;;;4933054;29;20203;-68
2022/10/27 03:10:52;;;;;;;8.53;2.80;;;;;;;;;;4932868;29;20219;-68
2022/10/27 03:13:19;;;;;;;4.70;2.60;;;;;;;;;;4932852;29;20204;-68
2022/10/27 03:15:46;;;;;;;3.67;2.57;;;;;;;;;;4933099;29;20220;-67
2022/10/27 03:18:13;;;;;;;2.47;2.30;;;;;;;;;;4932688;29;20216;-68
2022/10/27 03:20:40;;;;;;;2.67;2.03;;;;;;;;;;4932729;29;20212;-69
2022/10/27 03:23:07;;;;;;;2.13;1.97;;;;;;;;;;4932596;29;20234;-69
2022/10/27 03:25:36;;;;;;;2.03;1.93;;;;;;;;;;4932745;29;20212;-69
2022/10/27 03:28:04;;;;;;;4.57;2.07;;;;;;;;;;4932838;29;20208;-69
2022/10/27 03:30:31;;;;;;;6.37;2.20;;;;;;;;;;4932457;29;20232;-68
2022/10/27 03:33:00;;;;;;;2.67;2.10;;;;;;;;;;4932454;29;20701;-69
2022/10/27 03:35:27;;;;;;;2.50;2.23;;;;;;;;;;4932889;29;20214;-68
2022/10/27 03:37:57;;;;;;;2.40;2.13;;;;;;;;;;4932298;29;20435;-68
2022/10/27 03:40:24;;;;;;;3.57;2.20;;;;;;;;;;4921009;29;20231;-69
2022/10/27 03:42:56;;;;;;;2.20;2.03;;;;;;;;;;4932146;29;20227;-69
2022/10/27 03:45:25;;;;;;;1.80;1.70;;;;;;;;;;4932380;29;20322;-69
2022/10/27 03:47:59;;;;;;;1.77;1.63;;;;;;;;;;4932318;29;20239;-68
2022/10/27 03:50:26;;;;;;;3.03;2.03;;;;;;;;;;4932109;29;20313;-69
2022/10/27 03:52:53;;;;;;;3.10;1.67;;;;;;;;;;4932177;29;20590;-69
2022/10/27 03:55:20;;;;;;;2.10;1.80;;;;;;;;;;4931774;29;20733;-69
2022/10/27 03:57:47;;;;;;;2.00;1.80;;;;;;;;;;4931951;29;20243;-69
2022/10/27 04:00:15;;;;;;;2.17;2.03;;;;;;;;;;4932471;29;20302;-69
2022/10/27 04:02:43;;;;;;;2.00;1.90;;;;;;;;;;4932861;29;20223;-69
2022/10/27 04:05:10;;;;;;;2.73;1.50;;;;;;;;;;4933055;29;20204;-69
2022/10/27 04:07:37;;;;;;;1.80;1.70;;;;;;;;;;4933570;29;20212;-68
2022/10/27 04:10:05;;;;;;;4.77;1.83;;;;;;;;;;4933212;29;20211;-69
2022/10/27 04:12:32;;;;;;;3.40;1.70;;;;;;;;;;4932914;29;20667;-69
2022/10/27 04:14:59;;;;;;;2.00;1.77;;;;;;;;;;4933353;29;20231;-68
2022/10/27 04:17:26;;;;;;;4.83;2.33;;;;;;;;;;4932361;29;20208;-68
2022/10/27 04:19:54;;;;;;;5.03;3.03;;;;;;;;;;4922172;29;20216;-69
2022/10/27 04:22:21;;;;;;;2.37;2.17;;;;;;;;;;4933301;29;20227;-69
2022/10/27 04:24:48;;;;;;;3.87;2.73;;;;;;;;;;4933525;29;20227;-68
2022/10/27 04:27:16;;;;;;;7.53;2.73;;;;;;;;;;4932908;29;20219;-68
2022/10/27 04:29:43;;;;;;;6.83;2.63;;;;;;;;;;4931050;29;20403;-68
2022/10/27 04:32:10;;;;;;;3.00;2.70;;;;;;;;;;4933199;29;20204;-68
2022/10/27 04:34:37;;;;;;;5.13;2.20;;;;;;;;;;4932753;29;20219;-68
2022/10/27 04:37:05;;;;;;;2.40;2.10;;;;;;;;;;4932599;29;20208;-68
2022/10/27 04:39:32;;;;;;;8.23;2.43;;;;;;;;;;4932900;29;20204;-68
2022/10/27 04:41:59;;;;;;;6.53;2.13;;;;;;;;;;4933237;29;20216;-68
2022/10/27 04:44:26;;;;;;;3.77;2.30;;;;;;;;;;4932521;29;20228;-68
2022/10/27 04:46:53;;;;;;;3.80;2.20;;;;;;;;;;4932951;29;20207;-68
2022/10/27 04:49:20;;;;;;;3.23;2.30;;;;;;;;;;4932811;29;20567;-68
2022/10/27 04:51:47;;;;;;;2.47;2.27;;;;;;;;;;4932426;29;20593;-68
2022/10/27 04:54:16;;;;;;;2.67;2.47;;;;;;;;;;4932965;29;20219;-68
2022/10/27 04:56:43;;;;;;;3.80;2.97;;;;;;;;;;4932456;29;20239;-68
2022/10/27 04:59:10;;;;;;;2.80;2.40;;;;;;;;;;4932516;29;20215;-68
2022/10/27 05:01:37;;;;;;;7.63;2.70;;;;;;;;;;4932463;29;20214;-68
2022/10/27 05:04:04;;;;;;;2.93;2.33;;;;;;;;;;4932405;29;20235;-69
2022/10/27 05:06:31;;;;;;;2.33;2.20;;;;;;;;;;4931284;29;20744;-68
2022/10/27 05:08:58;;;;;;;5.53;2.83;;;;;;;;;;4924960;29;20595;-68
2022/10/27 05:11:27;;;;;;;2.77;2.57;;;;;;;;;;4930929;29;20207;-68
2022/10/27 05:13:54;;;;;;;2.90;2.70;;;;;;;;;;4931902;29;20211;-68
2022/10/27 05:16:21;;;;;;;9.73;3.00;;;;;;;;;;4932569;29;20211;-68
2022/10/27 05:18:48;;;;;;;3.70;2.37;;;;;;;;;;4932341;29;20215;-69
2022/10/27 05:21:15;;;;;;;8.57;2.70;;;;;;;;;;4932320;29;20674;-67
2022/10/27 05:23:42;;;;;;;5.07;2.83;;;;;;;;;;4932128;29;20239;-67
2022/10/27 05:26:09;;;;;;;7.13;2.17;;;;;;;;;;4932105;29;20203;-68
2022/10/27 05:28:41;;;;;;;3.07;2.40;;;;;;;;;;4931892;29;20211;-67
2022/10/27 05:31:08;;;;;;;3.00;2.70;;;;;;;;;;4932448;29;20273;-67
2022/10/27 05:33:35;;;;;;;3.03;2.73;;;;;;;;;;4931981;29;20196;-67
2022/10/27 05:36:02;;;;;;;2.53;2.33;;;;;;;;;;4931367;29;20282;-68
2022/10/27 05:38:29;;;;;;;4.93;2.77;;;;;;;;;;4930420;29;20223;-69
2022/10/27 05:40:57;;;;;;;3.53;2.40;;;;;;;;;;4932186;29;20211;-68
2022/10/27 05:43:24;;;;;;;4.47;2.80;;;;;;;;;;4930219;29;20228;-70
2022/10/27 05:45:53;;;;;;;5.03;2.53;;;;;;;;;;4932436;29;20223;-70
2022/10/27 05:48:20;;;;;;;3.50;2.87;;;;;;;;;;4931939;29;20204;-69
2022/10/27 05:50:52;;;;;;;4.67;2.20;;;;;;;;;;4932199;29;20223;-70
2022/10/27 05:53:19;;;;;;;2.90;2.20;;;;;;;;;;4931786;29;20303;-69
2022/10/27 05:55:46;;;;;;;3.20;2.50;;;;;;;;;;4931817;29;20215;-69
2022/10/27 05:58:13;;;;;;;2.70;2.53;;;;;;;;;;4931894;29;20214;-69
2022/10/27 06:00:40;;;;;;;3.60;2.60;;;;;;;;;;4931851;29;20399;-68
2022/10/27 06:03:14;;;;;;;6.73;3.17;;;;;;;;;;4931714;29;20254;-69
2022/10/27 06:05:41;;;;;;;4.43;3.07;;;;;;;;;;4931641;29;20212;-69
2022/10/27 06:08:08;;;;;;;4.33;2.87;;;;;;;;;;4931481;29;20214;-69
2022/10/27 06:10:35;;;;;;;3.03;2.80;;;;;;;;;;4931576;29;20210;-69
2022/10/27 06:13:02;;;;;;;3.63;2.97;;;;;;;;;;4931751;29;20222;-70
2022/10/27 06:15:29;;;;;;;5.60;3.67;;;;;;;;;;4931574;29;20296;-69
2022/10/27 06:17:56;;;;;;;3.47;2.67;;;;;;;;;;4931590;29;20204;-69
2022/10/27 06:20:25;;;;;;;3.97;3.20;;;;;;;;;;4931493;29;20212;-69
2022/10/27 06:22:53;;;;;;;5.20;3.80;;;;;;;;;;4931514;29;20220;-69
2022/10/27 06:25:20;;;;;;;5.63;3.50;;;;;;;;;;4931628;29;20286;-69
2022/10/27 06:27:47;;;;;;;4.20;3.10;;;;;;;;;;4935177;29;20200;-69
2022/10/27 06:30:14;;;;;;;6.53;3.43;;;;;;;;;;4935317;29;20303;-69
2022/10/27 06:32:41;;;;;;;4.77;3.07;;;;;;;;;;4935237;29;20204;-69
2022/10/27 06:35:09;;;;;;;3.10;2.87;;;;;;;;;;4935171;29;20211;-69
2022/10/27 06:37:39;;;;;;;3.90;3.20;;;;;;;;;;4930584;29;20304;-69
2022/10/27 06:40:07;;;;;;;6.80;3.13;;;;;;;;;;4934384;29;20219;-69
2022/10/27 06:42:35;;;;;;;3.37;3.07;;;;;;;;;;4935067;29;20252;-69
2022/10/27 06:45:02;;;;;;;4.80;3.43;;;;;;;;;;4935048;29;20302;-63
2022/10/27 06:47:30;;;;;;;4.87;3.20;;;;;;;;;;4934740;29;20216;-67
2022/10/27 06:49:57;;;;;;;4.07;2.73;;;;;;;;;;4934335;29;20686;-70
2022/10/27 06:52:24;;;;;;;4.93;3.23;;;;;;;;;;4923911;29;20893;-70
2022/10/27 06:54:52;;;;;;;6.77;3.40;;;;;;;;;;4923444;29;20236;-68
2022/10/27 06:57:20;;;;;;;4.30;3.30;;;;;;;;;;4925962;29;20249;-69
2022/10/27 06:59:47;;;;;;;4.23;3.23;;;;;;;;;;4924661;29;20587;-69
2022/10/27 07:02:15;;;;;;;4.20;3.80;;;;;;;;;;4924893;29;20208;-69
2022/10/27 07:04:45;;;;;;;3.30;3.00;;;;;;;;;;4924778;29;20319;-69
2022/10/27 07:07:13;;;;;;;4.00;3.33;;;;;;;;;;4928055;29;20223;-69
2022/10/27 07:09:40;;;;;;;7.27;3.77;;;;;;;;;;4927067;29;20303;-69
2022/10/27 07:12:09;;;;;;;5.07;4.03;;;;;;;;;;4928014;29;20218;-69
2022/10/27 07:14:36;;;;;;;4.80;3.63;;;;;;;;;;4924870;29;20212;-69
2022/10/27 07:17:03;;;;;;;4.73;3.97;;;;;;;;;;4924388;29;20207;-70
2022/10/27 07:19:30;;;;;;;5.23;4.07;;;;;;;;;;4924686;29;20208;-70
2022/10/27 07:21:57;;;;;;;3.77;3.43;;;;;;;;;;4923027;29;20196;-70
2022/10/27 07:24:24;;;;;;;6.03;3.23;;;;;;;;;;4922904;29;20251;-69
2022/10/27 07:26:51;;;;;;;4.90;4.03;;;;;;;;;;4924298;29;20643;-69
2022/10/27 07:29:20;;;;;;;5.17;4.07;;;;;;;;;;4922541;29;20263;-69
2022/10/27 07:31:47;;;;;;;5.37;4.07;;;;;;;;;;4924004;29;20562;-69
2022/10/27 07:34:14;;;;;;;5.00;4.10;;;;;;;;;;4929903;29;20204;-69
2022/10/27 07:36:41;;;;;;;8.20;3.80;;;;;;;;;;4932153;29;20478;-69
2022/10/27 07:39:09;;;;;;;10.30;4.57;;;;;;;;;;4931848;29;20226;-69
2022/10/27 07:41:36;;;;;;;6.03;4.57;;;;;;;;;;4932895;29;20220;-69
2022/10/27 07:44:03;;;;;;;9.27;4.87;;;;;;;;;;4932324;29;20227;-69
2022/10/27 07:46:31;;;;;;;8.27;4.63;;;;;;;;;;4932480;29;20785;-69
2022/10/27 07:48:58;;;;;;;15.77;5.87;;;;;;;;;;4932614;29;20204;-69
2022/10/27 07:51:25;;;;;;;11.30;5.23;;;;;;;;;;4932443;29;20244;-69
2022/10/27 07:53:52;;;;;;;11.17;5.43;;;;;;;;;;4932105;29;20215;-69
2022/10/27 07:56:20;;;;;;;12.73;5.73;;;;;;;;;;4931995;29;20251;-69
2022/10/27 07:58:49;;;;;;;14.53;5.83;;;;;;;;;;4932373;29;20620;-69
2022/10/27 08:01:16;;;;;;;8.87;5.67;;;;;;;;;;4932060;29;20235;-69
2022/10/27 08:03:44;;;;;;;10.80;5.67;;;;;;;;;;4932304;29;20223;-69
2022/10/27 08:06:11;;;;;;;12.93;6.23;;;;;;;;;;4931855;29;20212;-69
2022/10/27 08:08:38;;;;;;;13.77;6.17;;;;;;;;;;4931946;29;20223;-69
2022/10/27 08:11:06;;;;;;;13.43;6.83;;;;;;;;;;4932165;29;20208;-69
2022/10/27 08:13:33;;;;;;;11.30;5.67;;;;;;;;;;4931826;29;20227;-69
2022/10/27 08:16:00;;;;;;;13.40;6.00;;;;;;;;;;4925089;29;20215;-69
2022/10/27 08:18:27;;;;;;;13.03;5.53;;;;;;;;;;4923324;29;20624;-70
2022/10/27 08:20:55;;;;;;;11.63;6.37;;;;;;;;;;4929240;29;20485;-69
2022/10/27 08:23:24;;;;;;;9.80;5.77;;;;;;;;;;4929913;29;20224;-69
2022/10/27 08:25:51;;;;;;;8.07;5.37;;;;;;;;;;4924716;29;20283;-69
2022/10/27 08:28:19;;;;;;;13.77;6.27;;;;;;;;;;4932092;29;20706;-69
2022/10/27 08:30:46;;;;;;;10.60;6.80;;;;;;;;;;4930711;29;20741;-69
2022/10/27 08:33:13;;;;;;;9.33;5.73;;;;;;;;;;4932357;29;20219;-69
2022/10/27 08:35:40;;;;;;;11.07;6.63;;;;;;;;;;4932029;29;20207;-69
2022/10/27 08:38:12;;;;;;;11.93;7.30;;;;;;;;;;4932117;29;20697;-69
2022/10/27 08:40:45;;;;;;;9.37;6.13;;;;;;;;;;4932094;29;20657;-69
2022/10/27 08:43:40;;;;;;;10.10;5.87;;;;;;;;;;4932184;29;20591;-69
2022/10/27 08:46:10;;;;;;;8.97;5.90;;;;;;;;;;4909607;29;20218;-69
2022/10/27 08:48:37;;;;;;;13.77;6.90;;;;;;;;;;4932435;29;20218;-69
2022/10/27 08:51:05;;;;;;;8.63;5.57;;;;;;;;;;4932871;29;20361;-69
2022/10/27 08:53:37;;;;;;;11.32;6.28;;;;;;;;;;4932570;29;20209;-69
2022/10/27 08:56:06;;;;;;;9.10;5.93;;;;;;;;;;4932762;29;20750;-69
2022/10/27 08:58:37;;;;;;;9.23;4.80;;;;;;;;;;4932146;29;20873;-71
2022/10/27 09:01:07;;;;;;;8.95;4.63;;;;;;;;;;4932495;29;20228;-72
2022/10/27 09:03:43;;;;;;;8.70;4.85;;;;;;;;;;4932401;29;20203;-71
2022/10/27 09:06:12;;;;;;;5.65;4.38;;;;;;;;;;4932800;29;20215;-72
2022/10/27 09:08:42;;;;;;;4.72;3.80;;;;;;;;;;4932133;29;20311;-72
2022/10/27 09:11:14;;;;;;;4.85;3.85;;;;;;;;;;4930338;29;20212;-70
2022/10/27 09:13:50;;;;;;;3.65;3.35;;;;;;;;;;4931964;29;20663;-71
2022/10/27 09:16:21;;;;;;;4.95;3.55;;;;;;;;;;4932064;29;20204;-70
2022/10/27 09:18:50;;;;;;;6.55;3.15;;;;;;;;;;4932087;29;20204;-71
2022/10/27 09:21:19;;;;;;;4.82;4.03;;;;;;;;;;4932213;29;20211;-70
2022/10/27 09:23:50;;;;;;;4.53;4.05;;;;;;;;;;4931797;29;20212;-70
2022/10/27 09:26:19;;;;;;;7.40;3.38;;;;;;;;;;4932108;29;20204;-70
2022/10/27 09:28:48;;;;;;;3.17;2.88;;;;;;;;;;4930850;29;20693;-70
2022/10/27 09:31:17;;;;;;;3.40;3.10;;;;;;;;;;4932383;29;20233;-71
2022/10/27 09:33:48;;;;;;;2.60;2.47;;;;;;;;;;4931557;29;20208;-71
2022/10/27 09:36:15;;;;;;;2.95;2.70;;;;;;;;;;4932086;29;20211;-71
2022/10/27 09:38:42;;;;;;;2.40;2.20;;;;;;;;;;4931667;29;20204;-70
2022/10/27 09:41:11;;;;;;;2.42;2.22;;;;;;;;;;4931674;29;20204;-70
2022/10/27 09:43:38;;;;;;;3.17;2.85;;;;;;;;;;4931683;29;20208;-71
2022/10/27 09:46:06;;;;;;;2.72;2.50;;;;;;;;;;4931475;29;20235;-71
2022/10/27 09:48:35;;;;;;;5.05;2.78;;;;;;;;;;4931515;29;20709;-71
2022/10/27 09:51:07;;;;;;;2.78;2.13;;;;;;;;;;4932019;29;20239;-70
2022/10/27 09:53:38;;;;;;;2.47;2.38;;;;;;;;;;4930973;29;20235;-71
2022/10/27 09:56:06;;;;;;;1.90;1.80;;;;;;;;;;4931419;29;20232;-73
2022/10/27 09:58:41;;;;;;;2.70;2.50;;;;;;;;;;4931983;29;20207;-73
2022/10/27 10:01:08;;;;;;;3.60;2.47;;;;;;;;;;4930873;29;20573;-73
2022/10/27 10:03:35;;;;;;;2.03;1.92;;;;;;;;;;4931974;29;20211;-73
2022/10/27 10:06:04;;;;;;;1.85;1.77;;;;;;;;;;4930953;29;20231;-73
2022/10/27 10:08:32;;;;;;;2.05;1.95;;;;;;;;;;4931577;29;20211;-71
2022/10/27 10:11:00;;;;;;;1.67;1.58;;;;;;;;;;4931528;29;20211;-71
2022/10/27 10:13:28;;;;;;;3.28;1.73;;;;;;;;;;4930553;29;20207;-71
2022/10/27 10:16:10;;;;;;;3.15;2.00;;;;;;;;;;4931352;29;20340;-74
2022/10/27 10:18:38;;;;;;;1.52;1.52;;;;;;;;;;4931060;29;20223;-71
2022/10/27 10:21:07;;;;;;;1.60;1.50;;;;;;;;;;4931143;29;20215;-75
2022/10/27 10:23:34;;;;;;;3.03;1.58;;;;;;;;;;4930532;29;20211;-73
2022/10/27 10:26:02;;;;;;;2.15;1.55;;;;;;;;;;4912244;29;20240;-76
2022/10/27 10:28:33;;;;;;;1.60;1.50;;;;;;;;;;4927268;29;20211;-68
2022/10/27 10:31:01;;;;;;;1.67;1.58;;;;;;;;;;4930877;29;20204;-68
2022/10/27 10:33:32;;;;;;;1.55;1.55;;;;;;;;;;4930796;29;20211;-67
2022/10/27 10:36:02;;;;;;;5.57;1.80;;;;;;;;;;4931566;29;20216;-75
2022/10/27 10:38:30;;;;;;;3.85;1.75;;;;;;;;;;4933740;29;20653;-75
2022/10/27 10:41:05;;;;;;;6.53;2.80;;;;;;;;;;4930064;29;20300;-75
2022/10/27 10:43:32;;;;;;;1.65;1.55;;;;;;;;;;4930701;29;20549;-74
2022/10/27 10:45:59;;;;;;;3.80;2.00;;;;;;;;;;4930776;29;20318;-68
2022/10/27 10:48:40;;;;;;;1.63;1.52;;;;;;;;;;4928535;29;20869;-67
2022/10/27 10:51:08;;;;;;;3.78;2.20;;;;;;;;;;4923007;29;20607;-68
2022/10/27 10:53:37;;;;;;;2.50;2.28;;;;;;;;;;4930410;29;20247;-68
2022/10/27 10:56:06;;;;;;;2.35;2.20;;;;;;;;;;4920694;29;20302;-68
2022/10/27 10:58:35;;;;;;;2.75;2.08;;;;;;;;;;4911333;29;20694;-68
2022/10/27 11:01:03;;;;;;;2.55;2.10;;;;;;;;;;4913510;29;20219;-69
2022/10/27 11:03:32;;;;;;;3.65;2.38;;;;;;;;;;4947035;29;20215;-69
2022/10/27 11:06:02;;;;;;;2.03;1.98;;;;;;;;;;4932759;29;20251;-69
2022/10/27 11:08:38;;;;;;;1.95;1.75;;;;;;;;;;4930020;29;20211;-69
2022/10/27 11:11:07;;;;;;;3.15;2.20;;;;;;;;;;4922024;29;20215;-67
2022/10/27 11:13:42;;;;;;;2.53;2.33;;;;;;;;;;4933156;29;20212;-68
2022/10/27 11:16:10;;;;;;;3.28;3.05;;;;;;;;;;4931865;29;20204;-66
2022/10/27 11:18:42;;;;;;;4.00;3.08;;;;;;;;;;4933726;29;20235;-66
2022/10/27 11:21:15;;;;;;;4.20;2.90;;;;;;;;;;4933008;29;20219;-66
2022/10/27 11:23:43;;;;;;;6.18;3.03;;;;;;;;;;4933628;29;20223;-66
2022/10/27 11:26:11;;;;;;;5.25;3.22;;;;;;;;;;4933374;29;20239;-68
2022/10/27 11:28:46;;;;;;;3.85;2.97;;;;;;;;;;4933561;29;20691;-71
2022/10/27 11:31:18;;;;;;;2.60;2.40;;;;;;;;;;4932867;29;20207;-67
2022/10/27 11:33:47;;;;;;;5.20;2.90;;;;;;;;;;4933445;29;20230;-67
2022/10/27 11:36:19;;;;;;;3.15;2.95;;;;;;;;;;4932507;29;20218;-67
2022/10/27 11:38:52;;;;;;;11.30;3.17;;;;;;;;;;4933091;29;20215;-67
2022/10/27 11:41:24;;;;;;;3.55;3.25;;;;;;;;;;4932670;29;20686;-67
2022/10/27 11:43:55;;;;;;;3.88;3.47;;;;;;;;;;4933085;29;20210;-70
2022/10/27 11:46:26;;;;;;;3.58;3.28;;;;;;;;;;4933381;29;20236;-70
2022/10/27 11:48:56;;;;;;;5.90;4.07;;;;;;;;;;4933025;29;20211;-70
2022/10/27 11:51:28;;;;;;;6.38;3.90;;;;;;;;;;4932668;29;20211;-70
2022/10/27 11:53:56;;;;;;;5.43;3.30;;;;;;;;;;4918431;29;20593;-69
2022/10/27 11:56:31;;;;;;;3.67;3.10;;;;;;;;;;4932945;29;20304;-70
2022/10/27 11:59:03;;;;;;;4.15;3.75;;;;;;;;;;4933022;29;21418;-70
2022/10/27 12:01:38;;;;;;;4.75;3.53;;;;;;;;;;4932643;29;20223;-69
2022/10/27 12:04:20;;;;;;;5.03;4.10;;;;;;;;;;4932440;29;20199;-70
2022/10/27 12:06:51;;;;;;;6.13;3.90;;;;;;;;;;4931310;29;20315;-70
2022/10/27 12:09:26;;;;;;;4.32;3.92;;;;;;;;;;4932471;29;20214;-70
2022/10/27 12:11:59;;;;;;;5.47;3.40;;;;;;;;;;4932074;29;20231;-69
2022/10/27 12:14:30;;;;;;;3.30;3.10;;;;;;;;;;4931704;29;20220;-70
2022/10/27 12:17:01;;;;;;;4.10;3.35;;;;;;;;;;4913701;29;20227;-70
2022/10/27 12:19:29;;;;;;;6.95;3.03;;;;;;;;;;4930190;29;20222;-70
2022/10/27 12:22:03;;;;;;;5.05;3.70;;;;;;;;;;4932258;29;20238;-70
2022/10/27 12:24:34;;;;;;;6.25;4.05;;;;;;;;;;4931000;29;20207;-67
2022/10/27 12:27:05;;;;;;;3.78;3.50;;;;;;;;;;4930518;29;20231;-67
2022/10/27 12:29:35;;;;;;;3.90;3.58;;;;;;;;;;4932167;29;20211;-68
2022/10/27 12:32:06;;;;;;;6.70;4.13;;;;;;;;;;4922248;29;20223;-67
2022/10/27 12:34:38;;;;;;;6.00;4.22;;;;;;;;;;4932036;29;20208;-68
2022/10/27 12:37:11;;;;;;;6.75;4.57;;;;;;;;;;4932074;29;20689;-68
2022/10/27 12:39:43;;;;;;;8.25;4.07;;;;;;;;;;4932375;29;20453;-68
2022/10/27 12:42:14;;;;;;;4.50;3.78;;;;;;;;;;4931931;29;20211;-67
2022/10/27 12:44:45;;;;;;;5.68;3.85;;;;;;;;;;4932466;29;20219;-69
2022/10/27 12:47:18;;;;;;;4.35;3.88;;;;;;;;;;4932709;29;20267;-68
2022/10/27 12:49:48;;;;;;;7.10;4.28;;;;;;;;;;4932706;29;20222;-68
2022/10/27 12:52:19;;;;;;;4.43;3.75;;;;;;;;;;4932083;29;20212;-68
2022/10/27 12:55:00;;;;;;;5.20;4.22;;;;;;;;;;4931757;29;20224;-68
2022/10/27 12:57:32;;;;;;;5.75;4.18;;;;;;;;;;4912958;29;20248;-67
2022/10/27 13:00:03;;;;;;;4.47;4.03;;;;;;;;;;4919813;29;20666;-68
2022/10/27 13:02:33;;;;;;;7.65;5.72;;;;;;;;;;4932163;29;20239;-69
2022/10/27 13:05:18;;;;;;;7.30;4.40;;;;;;;;;;4932031;29;20521;-68
2022/10/27 13:07:59;;;;;;;4.55;4.15;;;;;;;;;;4932038;28;20208;-68
2022/10/27 13:10:37;;;;;;;5.72;4.50;;;;;;;;;;4931670;29;20207;-66
2022/10/27 13:13:19;;;;;;;6.45;4.30;;;;;;;;;;4931641;29;20214;-69
2022/10/27 13:15:57;;;;;;;4.85;4.45;;;;;;;;;;4932130;29;20327;-67
2022/10/27 13:18:45;;;;;;;4.82;4.38;;;;;;;;;;4931991;29;20233;-69
2022/10/27 13:21:16;;;;;;;6.20;4.22;;;;;;;;;;4930320;29;20211;-69
2022/10/27 13:23:47;;;;;;;6.95;4.18;;;;;;;;;;4930043;29;20306;-68
2022/10/27 13:26:19;;;;;;;6.03;4.45;;;;;;;;;;4932080;29;20235;-69
2022/10/27 13:28:49;;;;;;;4.28;3.95;;;;;;;;;;4932226;29;20246;-69
2022/10/27 13:31:18;;;;;;;10.25;4.55;;;;;;;;;;4915553;29;20224;-67
2022/10/27 13:33:59;;;;;;;4.57;3.90;;;;;;;;;;4912785;29;20212;-68
2022/10/27 13:36:26;;;;;;;5.15;4.38;;;;;;;;;;4930422;29;20227;-67
2022/10/27 13:39:08;;;;;;;4.30;3.78;;;;;;;;;;4931424;29;20211;-67
2022/10/27 13:41:50;;;;;;;5.57;4.05;;;;;;;;;;4931467;29;20207;-66
2022/10/27 13:44:27;;;;;;;5.18;3.67;;;;;;;;;;4930064;29;20222;-67
2022/10/27 13:47:09;;;;;;;6.78;4.55;;;;;;;;;;4931612;29;20250;-67
2022/10/27 13:49:53;;;;;;;6.90;4.53;;;;;;;;;;4914652;29;20224;-65
2022/10/27 13:52:21;;;;;;;5.90;4.00;;;;;;;;;;4925924;29;20282;-67
2022/10/27 13:54:59;;;;;;;5.25;3.88;;;;;;;;;;4931170;29;20266;-67
2022/10/27 13:57:53;;;;;;;4.05;3.67;;;;;;;;;;4929030;29;20239;-66
2022/10/27 14:00:23;;;;;;;5.75;4.03;;;;;;;;;;4912528;29;20216;-65
2022/10/27 14:02:54;;;;;;;6.20;4.00;;;;;;;;;;4924668;29;20682;-66
2022/10/27 14:05:23;;;;;;;4.90;4.13;;;;;;;;;;4930799;29;20263;-65
2022/10/27 14:07:50;;;;;;;6.28;4.30;;;;;;;;;;4928565;29;20218;-65
2022/10/27 14:10:17;;;;;;;4.65;4.25;;;;;;;;;;4930135;29;20315;-65
2022/10/27 14:12:45;;;;;;;8.00;3.78;;;;;;;;;;4930602;29;20211;-64
2022/10/27 14:15:17;;;;;;;6.90;4.03;;;;;;;;;;4922372;29;20276;-65
2022/10/27 14:17:47;;;;;;;6.53;4.00;;;;;;;;;;4912129;29;20220;-65
2022/10/27 14:20:18;;;;;;;4.35;3.95;;;;;;;;;;4922835;29;20207;-65
2022/10/27 14:22:48;;;;;;;9.45;4.22;;;;;;;;;;4930790;29;20318;-65
2022/10/27 14:25:18;;;;;;;5.32;4.38;;;;;;;;;;4926981;29;20201;-65
2022/10/27 14:27:45;;;;;;;5.72;4.47;;;;;;;;;;4925566;29;20226;-67
2022/10/27 14:30:14;;;;;;;5.03;4.53;;;;;;;;;;4930699;29;20215;-67
2022/10/27 14:32:42;;;;;;;12.23;4.47;;;;;;;;;;4929778;29;20227;-66
2022/10/27 14:35:17;;;;;;;6.03;4.45;;;;;;;;;;4930031;29;20299;-65
2022/10/27 14:37:44;;;;;;;7.30;4.55;;;;;;;;;;4923217;29;20255;-67
2022/10/27 14:40:16;;;;;;;5.30;4.15;;;;;;;;;;4924504;29;20303;-65
2022/10/27 14:42:44;;;;;;;5.35;4.25;;;;;;;;;;4930761;29;20212;-65
2022/10/27 14:45:13;;;;;;;4.53;3.78;;;;;;;;;;4929847;29;20212;-67
2022/10/27 14:47:42;;;;;;;5.13;4.20;;;;;;;;;;4932991;29;20286;-68
2022/10/27 14:50:13;;;;;;;4.45;3.97;;;;;;;;;;4924108;29;20225;-65
2022/10/27 14:52:43;;;;;;;4.38;3.97;;;;;;;;;;4926465;29;20627;-68
2022/10/27 14:55:17;;;;;;;5.90;3.90;;;;;;;;;;4932779;29;20773;-65